createdAt,value
2022-08-05T00:00:23.187Z,92.70
2022-08-05T00:02:56.171Z,92.80
2022-08-05T00:06:02.959Z,92.70
2022-08-05T00:08:32.603Z,92.50
2022-08-05T00:11:20.709Z,92.80
2022-08-05T00:13:54.171Z,92.20
2022-08-05T00:16:35.646Z,92.50
2022-08-05T00:19:07.619Z,92.60
2022-08-05T00:21:38.015Z,92.40
2022-08-05T00:24:16.003Z,92.30
2022-08-05T00:26:51.717Z,92.60
2022-08-05T00:32:12.341Z,93.00
2022-08-05T00:35:05.103Z,93.30
2022-08-05T00:37:52.953Z,93.10
2022-08-05T00:40:29.470Z,92.90
2022-08-05T00:43:02.637Z,93.00
2022-08-05T00:45:38.905Z,92.90
2022-08-05T00:48:14.966Z,93.20
2022-08-05T00:50:47.397Z,93.00
2022-08-05T00:54:01.264Z,93.00
2022-08-05T00:56:12.424Z,93.30
2022-08-05T00:58:47.724Z,93.40
2022-08-05T01:01:24.932Z,93.80
2022-08-05T01:04:11.833Z,93.70
2022-08-05T01:06:48.853Z,93.70
2022-08-05T01:09:20.218Z,94.10
2022-08-05T01:11:55.060Z,94.00
2022-08-05T01:14:33.563Z,94.00
2022-08-05T01:17:08.585Z,93.90
2022-08-05T01:20:00.976Z,94.20
2022-08-05T01:22:46.893Z,94.40
2022-08-05T01:25:53.531Z,94.30
2022-08-05T01:28:35.539Z,94.80
2022-08-05T01:31:13.184Z,95.00
2022-08-05T01:33:58.230Z,95.40
2022-08-05T01:36:35.736Z,95.60
2022-08-05T01:39:13.935Z,95.40
2022-08-05T01:42:06.321Z,95.30
2022-08-05T01:44:43.258Z,95.10
2022-08-05T01:47:18.133Z,95.60
2022-08-05T01:50:01.534Z,95.60
2022-08-05T01:52:34.805Z,96.20
2022-08-05T01:55:08.270Z,96.50
2022-08-05T01:58:11.959Z,96.50
2022-08-05T02:00:36.530Z,96.80
2022-08-05T02:03:24.375Z,96.60
2022-08-05T02:06:01.071Z,97.00
2022-08-05T02:08:40.763Z,97.30
2022-08-05T02:11:32.809Z,97.50
2022-08-05T02:14:08.290Z,97.30
2022-08-05T02:16:52.948Z,97.40
2022-08-05T02:19:34.575Z,97.20
2022-08-05T02:22:25.949Z,97.10
2022-08-05T02:25:04.716Z,97.60
2022-08-05T02:27:58.263Z,98.10
2022-08-05T02:30:51.804Z,97.90
2022-08-05T02:33:36.233Z,98.50
2022-08-05T02:36:13.528Z,98.50
2022-08-05T02:38:53.564Z,98.00
2022-08-05T02:41:28.826Z,97.70
2022-08-05T02:44:13.245Z,98.00
2022-08-05T02:46:58.360Z,98.40
2022-08-05T02:49:37.967Z,98.60
2022-08-05T02:52:13.704Z,97.90
2022-08-05T02:55:01.574Z,97.60
2022-08-05T02:58:10.418Z,98.00
2022-08-05T03:00:26.946Z,98.50
2022-08-05T03:02:58.335Z,98.30
2022-08-05T03:06:55.753Z,98.30
2022-08-05T03:08:26.998Z,98.90
2022-08-05T03:11:53.575Z,98.70
2022-08-05T03:13:51.547Z,99.20
2022-08-05T03:16:33.080Z,98.80
2022-08-05T03:19:16.926Z,98.80
2022-08-05T03:21:52.851Z,99.20
2022-08-05T03:24:30.187Z,99.30
2022-08-05T03:27:01.599Z,99.40
2022-08-05T03:29:45.486Z,99.80
2022-08-05T03:32:22.192Z,99.90
2022-08-05T03:35:01.579Z,99.90
2022-08-05T03:40:31.320Z,99.90
2022-08-05T03:43:58.743Z,99.90
2022-08-05T03:45:58.055Z,99.90
2022-08-05T03:48:29.737Z,99.90
2022-08-05T03:52:35.428Z,99.90
2022-08-05T03:55:34.007Z,99.90
2022-08-05T03:56:53.343Z,99.90
2022-08-05T03:59:29.104Z,99.90
2022-08-05T04:02:37.509Z,99.90
2022-08-05T04:05:12.121Z,99.90
2022-08-05T04:07:57.220Z,99.90
2022-08-05T04:10:37.538Z,99.90
2022-08-05T04:13:09.575Z,99.90
2022-08-05T04:15:40.043Z,99.90
2022-08-05T04:18:30.526Z,99.90
2022-08-05T04:21:00.942Z,99.90
2022-08-05T04:24:05.322Z,99.90
2022-08-05T04:26:25.014Z,99.90
2022-08-05T04:28:55.097Z,99.90
2022-08-05T04:31:27.610Z,99.90
2022-08-05T04:34:31.668Z,99.90
2022-08-05T04:36:58.800Z,99.90
2022-08-05T04:39:28.948Z,99.90
2022-08-05T04:42:01.889Z,99.90
2022-08-05T04:44:33.873Z,99.90
2022-08-05T04:47:09.839Z,99.90
2022-08-05T04:50:02.988Z,99.90
2022-08-05T04:52:33.368Z,99.90
2022-08-05T04:55:14.442Z,99.90
2022-08-05T04:57:51.564Z,99.90
2022-08-05T05:00:24.266Z,99.90
2022-08-05T05:02:54.844Z,99.90
2022-08-05T05:05:28.476Z,99.90
2022-08-05T05:08:00.862Z,99.90
2022-08-05T05:10:33.411Z,99.90
2022-08-05T05:13:06.375Z,99.90
2022-08-05T05:15:59.498Z,99.90
2022-08-05T05:18:31.099Z,99.90
2022-08-05T05:21:04.320Z,99.90
2022-08-05T05:24:02.398Z,99.90
2022-08-05T05:26:28.053Z,99.90
2022-08-05T05:29:14.181Z,99.90
2022-08-05T05:31:46.082Z,99.90
2022-08-05T05:34:21.155Z,99.90
2022-08-05T05:36:56.855Z,99.90
2022-08-05T05:39:34.464Z,99.90
2022-08-05T05:42:05.258Z,99.90
2022-08-05T05:44:43.108Z,99.90
2022-08-05T05:47:21.545Z,99.90
2022-08-05T05:50:01.417Z,99.90
2022-08-05T05:52:34.625Z,99.90
2022-08-05T05:55:13.664Z,99.90
2022-08-05T05:57:52.134Z,99.90
2022-08-05T06:00:27.843Z,99.90
2022-08-05T06:03:03.623Z,99.90
2022-08-05T06:05:55.636Z,99.90
2022-08-05T06:08:31.637Z,99.90
2022-08-05T06:11:04.029Z,99.90
2022-08-05T06:13:40.787Z,99.90
2022-08-05T06:16:29.649Z,99.90
2022-08-05T06:19:05.960Z,99.90
2022-08-05T06:21:41.710Z,99.90
2022-08-05T06:24:14.774Z,99.90
2022-08-05T06:26:51.134Z,99.90
2022-08-05T06:29:25.329Z,99.90
2022-08-05T06:32:26.330Z,99.90
2022-08-05T06:35:00.381Z,99.90
2022-08-05T06:37:55.798Z,99.90
2022-08-05T06:40:27.866Z,99.60
2022-08-05T06:42:58.427Z,98.80
2022-08-05T06:46:02.872Z,97.40
2022-08-05T06:48:52.573Z,97.20
2022-08-05T06:51:12.158Z,97.50
2022-08-05T06:53:59.600Z,96.10
2022-08-05T06:56:29.928Z,96.50
2022-08-05T07:01:40.674Z,95.60
2022-08-05T07:06:50.452Z,94.50
2022-08-05T07:11:55.997Z,94.40
2022-08-05T07:14:43.238Z,94.80
2022-08-05T07:17:59.724Z,93.90
2022-08-05T07:20:32.576Z,93.50
2022-08-05T07:22:58.422Z,92.60
2022-08-05T07:30:52.846Z,92.10
2022-08-05T07:33:36.649Z,92.00
2022-08-05T07:36:20.274Z,92.00
2022-08-05T07:38:54.814Z,90.30
2022-08-05T07:42:13.932Z,90.80
2022-08-05T07:44:19.491Z,90.30
2022-08-05T07:46:50.871Z,88.80
2022-08-05T07:49:21.998Z,89.50
2022-08-05T07:51:55.267Z,86.60
2022-08-05T07:54:31.373Z,84.30
2022-08-05T07:57:23.694Z,84.50
2022-08-05T07:59:54.400Z,84.20
2022-08-05T08:02:30.724Z,82.30
2022-08-05T08:05:18.470Z,83.00
2022-08-05T08:08:00.230Z,81.30
2022-08-05T08:10:31.018Z,82.00
2022-08-05T08:13:01.727Z,81.60
2022-08-05T08:16:33.657Z,82.50
2022-08-05T08:18:22.182Z,81.50
2022-08-05T08:21:02.390Z,79.30
2022-08-05T08:24:02.055Z,79.30
2022-08-05T08:26:30.017Z,78.00
2022-08-05T08:29:09.681Z,75.90
2022-08-05T08:31:52.289Z,75.00
2022-08-05T08:34:29.864Z,74.60
2022-08-05T08:37:04.981Z,71.50
2022-08-05T08:39:44.203Z,66.90
2022-08-05T08:42:34.063Z,63.70
2022-08-05T08:45:23.663Z,57.90
2022-08-05T08:48:07.050Z,57.10
2022-08-05T08:51:22.157Z,55.70
2022-08-05T08:53:44.483Z,51.60
2022-08-05T08:56:19.553Z,51.10
2022-08-05T08:58:52.581Z,49.20
2022-08-05T09:01:23.005Z,47.20
2022-08-05T09:03:57.277Z,44.00
2022-08-05T09:06:29.905Z,43.00
2022-08-05T09:09:02.393Z,44.70
2022-08-05T09:11:52.958Z,47.50
2022-08-05T09:14:59.202Z,48.20
2022-08-05T09:17:42.717Z,47.00
2022-08-05T09:20:08.520Z,45.50
2022-08-05T09:23:09.213Z,46.60
2022-08-05T09:26:01.064Z,48.90
2022-08-05T09:28:34.528Z,49.60
2022-08-05T09:31:22.682Z,51.20
2022-08-05T09:33:59.567Z,49.70
2022-08-05T09:36:54.323Z,49.10
2022-08-05T09:39:41.990Z,47.20
2022-08-05T09:42:23.007Z,43.90
2022-08-05T09:45:17.982Z,43.80
2022-08-05T09:47:55.888Z,44.00
2022-08-05T09:50:44.673Z,45.70
2022-08-05T09:53:25.993Z,47.00
2022-08-05T09:56:12.932Z,46.50
2022-08-05T09:58:43.984Z,44.80
2022-08-05T10:01:32.425Z,45.20
2022-08-05T10:04:10.388Z,46.00
2022-08-05T10:06:54.656Z,46.60
2022-08-05T10:09:28.149Z,47.50
2022-08-05T10:12:18.566Z,44.00
2022-08-05T10:15:20.286Z,41.10
2022-08-05T10:18:11.811Z,40.00
2022-08-05T10:20:47.679Z,39.90
2022-08-05T10:23:34.742Z,41.00
2022-08-05T10:26:13.889Z,41.40
2022-08-05T10:28:46.364Z,40.20
2022-08-05T10:32:50.604Z,40.90
2022-08-05T10:34:11.980Z,41.70
2022-08-05T10:36:44.228Z,43.50
2022-08-05T10:39:24.513Z,46.10
2022-08-05T10:42:18.400Z,48.10
2022-08-05T10:44:49.707Z,48.50
2022-08-05T10:47:26.497Z,47.50
2022-08-05T10:50:33.151Z,44.30
2022-08-05T10:53:03.076Z,42.90
2022-08-05T10:56:03.632Z,44.00
2022-08-05T10:58:35.873Z,44.50
2022-08-05T11:01:15.808Z,44.50
2022-08-05T11:04:07.081Z,45.20
2022-08-05T11:07:12.118Z,46.30
2022-08-05T11:09:47.167Z,44.20
2022-08-05T11:12:50.401Z,42.30
2022-08-05T11:16:00.540Z,43.10
2022-08-05T11:18:34.631Z,41.70
2022-08-05T11:21:11.981Z,39.90
2022-08-05T11:24:04.648Z,38.30
2022-08-05T11:26:49.622Z,34.20
2022-08-05T11:29:40.382Z,34.10
2022-08-05T11:32:28.190Z,34.60
2022-08-05T11:34:59.019Z,33.80
2022-08-05T11:38:28.357Z,33.90
2022-08-05T11:41:34.701Z,35.40
2022-08-05T11:44:04.574Z,34.60
2022-08-05T11:47:09.547Z,34.70
2022-08-05T11:49:34.100Z,36.00
2022-08-05T11:52:08.686Z,37.30
2022-08-05T11:54:43.582Z,37.80
2022-08-05T11:57:25.501Z,38.60
2022-08-05T12:00:29.157Z,39.70
2022-08-05T12:03:00.854Z,40.70
2022-08-05T12:05:36.507Z,41.80
2022-08-05T12:08:11.645Z,41.50
2022-08-05T12:10:45.997Z,41.70
2022-08-05T12:13:48.033Z,42.20
2022-08-05T12:16:14.775Z,41.90
2022-08-05T12:18:49.622Z,42.60
2022-08-05T12:21:26.927Z,42.20
2022-08-05T12:24:04.827Z,41.40
2022-08-05T12:26:37.045Z,41.60
2022-08-05T12:29:11.872Z,42.80
2022-08-05T12:31:53.628Z,42.80
2022-08-05T12:34:28.530Z,42.40
2022-08-05T12:37:00.382Z,41.80
2022-08-05T12:39:34.488Z,41.90
2022-08-05T12:42:14.929Z,42.40
2022-08-05T12:44:48.605Z,42.20
2022-08-05T12:47:30.662Z,42.20
2022-08-05T12:50:04.463Z,42.40
2022-08-05T12:52:39.396Z,42.20
2022-08-05T12:55:25.463Z,42.80
2022-08-05T12:58:39.017Z,42.70
2022-08-05T13:02:03.204Z,41.20
2022-08-05T13:03:43.291Z,42.70
2022-08-05T13:06:18.303Z,42.10
2022-08-05T13:08:51.434Z,43.00
2022-08-05T13:11:57.945Z,42.60
2022-08-05T13:14:19.533Z,43.30
2022-08-05T13:16:58.197Z,43.60
2022-08-05T13:19:51.091Z,43.50
2022-08-05T13:22:27.759Z,43.40
2022-08-05T13:25:05.725Z,43.30
2022-08-05T13:27:40.034Z,43.10
2022-08-05T13:30:34.510Z,43.00
2022-08-05T13:33:06.649Z,44.00
2022-08-05T13:35:50.438Z,44.60
2022-08-05T13:38:30.274Z,43.90
2022-08-05T13:43:44.304Z,43.50
2022-08-05T13:49:17.597Z,43.40
2022-08-05T13:51:47.700Z,44.20
2022-08-05T13:54:21.008Z,43.40
2022-08-05T13:56:55.545Z,43.60
2022-08-05T13:59:26.930Z,43.40
2022-08-05T14:02:00.369Z,44.30
2022-08-05T14:04:51.049Z,43.80
2022-08-05T14:07:59.681Z,43.30
2022-08-05T14:10:18.425Z,44.80
2022-08-05T14:12:49.304Z,45.30
2022-08-05T14:16:07.798Z,45.60
2022-08-05T14:18:18.128Z,45.70
2022-08-05T14:20:55.904Z,46.00
2022-08-05T14:23:29.652Z,44.50
2022-08-05T14:26:06.874Z,45.00
2022-08-05T14:28:36.677Z,45.40
2022-08-05T14:31:54.551Z,46.30
2022-08-05T14:34:13.280Z,46.90
2022-08-05T14:36:48.623Z,48.20
2022-08-05T14:39:23.295Z,48.80
2022-08-05T14:42:19.695Z,48.50
2022-08-05T14:44:46.022Z,48.40
2022-08-05T14:47:16.245Z,48.00
2022-08-05T14:49:56.527Z,47.80
2022-08-05T14:52:52.588Z,47.90
2022-08-05T14:55:22.575Z,48.60
2022-08-05T14:57:55.950Z,48.90
2022-08-05T15:00:28.411Z,49.00
2022-08-05T15:02:59.720Z,49.10
2022-08-05T15:06:08.210Z,48.80
2022-08-05T15:08:57.734Z,49.30
2022-08-05T15:11:13.413Z,49.20
2022-08-05T15:13:45.069Z,49.30
2022-08-05T15:16:19.446Z,49.60
2022-08-05T15:18:49.605Z,49.50
2022-08-05T15:23:57.227Z,49.50
2022-08-05T15:26:31.749Z,50.10
2022-08-05T15:29:02.737Z,49.00
2022-08-05T15:31:34.935Z,49.90
2022-08-05T15:34:18.691Z,50.30
2022-08-05T15:36:55.614Z,51.10
2022-08-05T15:41:01.277Z,51.80
2022-08-05T15:42:50.388Z,51.40
2022-08-05T15:45:11.522Z,52.40
2022-08-05T15:47:41.880Z,52.20
2022-08-05T15:50:15.234Z,52.70
2022-08-05T15:52:52.933Z,53.30
2022-08-05T15:56:02.317Z,53.60
2022-08-05T15:58:17.924Z,53.70
2022-08-05T16:01:03.485Z,54.00
2022-08-05T16:03:41.097Z,53.30
2022-08-05T16:06:12.101Z,53.10
2022-08-05T16:08:42.513Z,52.90
2022-08-05T16:11:15.386Z,53.00
2022-08-05T16:13:45.814Z,53.10
2022-08-05T16:16:25.349Z,52.10
2022-08-05T16:18:55.857Z,53.30
2022-08-05T16:22:00.136Z,54.20
2022-08-05T16:24:39.897Z,54.00
2022-08-05T16:27:15.822Z,53.70
2022-08-05T16:29:50.340Z,53.30
2022-08-05T16:32:28.584Z,54.00
2022-08-05T16:35:00.235Z,53.10
2022-08-05T16:38:15.575Z,53.00
2022-08-05T16:40:26.471Z,53.30
2022-08-05T16:43:02.143Z,53.00
2022-08-05T16:46:04.152Z,52.00
2022-08-05T16:48:25.524Z,52.30
2022-08-05T16:51:03.853Z,52.40
2022-08-05T16:54:05.155Z,52.80
2022-08-05T16:56:31.208Z,51.60
2022-08-05T16:59:08.115Z,51.80
2022-08-05T17:01:54.064Z,51.40
2022-08-05T17:04:27.646Z,51.20
2022-08-05T17:07:01.858Z,50.30
2022-08-05T17:09:49.967Z,50.80
2022-08-05T17:12:51.927Z,50.70
2022-08-05T17:15:19.587Z,49.60
2022-08-05T17:17:54.819Z,50.50
2022-08-05T17:20:26.709Z,50.90
2022-08-05T17:22:57.626Z,51.20
2022-08-05T17:25:39.499Z,50.60
2022-08-05T17:28:11.167Z,51.00
2022-08-05T17:30:51.835Z,51.90
2022-08-05T17:33:23.278Z,51.40
2022-08-05T17:36:07.581Z,51.90
2022-08-05T17:38:40.505Z,51.10
2022-08-05T17:44:01.125Z,51.60
2022-08-05T17:46:36.224Z,51.50
2022-08-05T17:49:06.903Z,51.70
2022-08-05T17:51:40.302Z,50.90
2022-08-05T17:54:11.080Z,49.90
2022-08-05T17:56:44.786Z,49.50
2022-08-05T18:01:55.477Z,49.70
2022-08-05T18:04:27.969Z,49.80
2022-08-05T18:07:01.378Z,48.90
2022-08-05T18:10:00.014Z,49.30
2022-08-05T18:12:24.461Z,49.10
2022-08-05T18:14:55.278Z,49.60
2022-08-05T18:17:59.230Z,50.80
2022-08-05T18:20:18.284Z,51.20
2022-08-05T18:22:54.606Z,51.80
2022-08-05T18:25:32.940Z,51.40
2022-08-05T18:28:04.920Z,52.10
2022-08-05T18:30:36.023Z,52.00
2022-08-05T18:33:13.623Z,52.80
2022-08-05T18:36:00.584Z,52.90
2022-08-05T18:38:34.821Z,53.60
2022-08-05T18:41:55.982Z,53.30
2022-08-05T18:43:57.748Z,53.60
2022-08-05T18:46:37.048Z,53.30
2022-08-05T18:49:30.799Z,53.50
2022-08-05T18:52:33.140Z,53.30
2022-08-05T18:55:04.782Z,53.80
2022-08-05T18:57:43.543Z,54.00
2022-08-05T19:00:28.468Z,53.60
2022-08-05T19:03:04.093Z,54.90
2022-08-05T19:06:12.306Z,54.70
2022-08-05T19:08:30.742Z,52.60
2022-08-05T19:11:04.571Z,52.00
2022-08-05T19:13:36.847Z,51.30
2022-08-05T19:16:21.995Z,52.10
2022-08-05T19:18:56.649Z,52.50
2022-08-05T19:21:34.585Z,52.60
2022-08-05T19:24:12.258Z,52.90
2022-08-05T19:26:54.496Z,53.50
2022-08-05T19:29:35.844Z,53.70
2022-08-05T19:32:11.129Z,54.20
2022-08-05T19:34:42.079Z,54.90
2022-08-05T19:37:35.002Z,54.50
2022-08-05T19:40:18.528Z,54.90
2022-08-05T19:45:36.477Z,55.00
2022-08-05T19:48:14.423Z,55.80
2022-08-05T19:50:45.294Z,55.60
2022-08-05T19:53:18.051Z,55.50
2022-08-05T19:56:14.452Z,55.50
2022-08-05T19:58:57.684Z,56.10
2022-08-05T20:01:47.532Z,56.80
2022-08-05T20:04:17.862Z,56.30
2022-08-05T20:06:50.415Z,56.50
2022-08-05T20:09:23.483Z,57.10
2022-08-05T20:11:55.782Z,57.80
2022-08-05T20:14:26.974Z,58.20
2022-08-05T20:20:51.129Z,58.00
2022-08-05T20:23:39.585Z,58.40
2022-08-05T20:26:18.593Z,59.10
2022-08-05T20:28:50.905Z,59.30
2022-08-05T20:34:12.295Z,59.70
2022-08-05T20:36:43.809Z,60.30
2022-08-05T20:39:16.289Z,60.50
2022-08-05T20:41:49.654Z,60.80
2022-08-05T20:44:30.591Z,60.20
2022-08-05T20:47:03.415Z,61.20
2022-08-05T20:49:39.743Z,61.70
2022-08-05T20:52:12.375Z,62.20
2022-08-05T20:55:55.201Z,62.50
2022-08-05T20:57:43.500Z,63.00
2022-08-05T21:00:40.152Z,63.80
2022-08-05T21:03:09.353Z,63.60
2022-08-05T21:05:53.505Z,63.50
2022-08-05T21:08:28.005Z,64.20
2022-08-05T21:11:15.142Z,64.10
2022-08-05T21:14:05.449Z,65.10
2022-08-05T21:16:36.344Z,64.60
2022-08-05T21:19:06.232Z,64.70
2022-08-05T21:24:20.524Z,66.10
2022-08-05T21:26:57.942Z,65.60
2022-08-05T21:29:32.553Z,65.70
2022-08-05T21:32:11.133Z,66.00
2022-08-05T21:35:06.832Z,66.20
2022-08-05T21:37:41.272Z,66.30
2022-08-05T21:40:14.125Z,66.10
2022-08-05T21:42:45.624Z,66.40
2022-08-05T21:45:26.508Z,66.70
2022-08-05T21:48:09.804Z,66.80
2022-08-05T21:50:40.331Z,67.10
2022-08-05T21:53:17.581Z,67.10
2022-08-05T21:56:04.866Z,67.40
2022-08-05T21:58:42.417Z,67.60
2022-08-05T22:01:24.254Z,68.00
2022-08-05T22:03:55.339Z,68.90
2022-08-05T22:06:39.645Z,68.20
2022-08-05T22:09:14.706Z,68.90
2022-08-05T22:11:46.926Z,69.70
2022-08-05T22:14:33.263Z,69.60
2022-08-05T22:17:08.482Z,70.50
2022-08-05T22:20:01.621Z,70.10
2022-08-05T22:22:29.591Z,70.90
2022-08-05T22:25:21.327Z,70.90
2022-08-05T22:28:11.235Z,70.70
2022-08-05T22:30:57.225Z,71.30
2022-08-05T22:33:55.465Z,70.70
2022-08-05T22:36:23.801Z,70.60
2022-08-05T22:38:55.051Z,71.10
2022-08-05T22:41:25.938Z,71.30
2022-08-05T22:44:16.238Z,71.40
2022-08-05T22:46:49.515Z,71.90
2022-08-05T22:55:04.379Z,72.40
2022-08-05T22:57:50.059Z,72.60
2022-08-05T23:00:21.533Z,72.90
2022-08-05T23:02:53.622Z,73.50
2022-08-05T23:05:26.961Z,74.10
2022-08-05T23:07:57.102Z,74.10
2022-08-05T23:10:27.276Z,74.80
2022-08-05T23:12:59.357Z,74.50
2022-08-05T23:15:34.729Z,74.70
2022-08-05T23:18:11.412Z,75.10
2022-08-05T23:20:44.686Z,75.70
2022-08-05T23:23:15.197Z,75.60
2022-08-05T23:25:54.924Z,76.00
2022-08-05T23:28:29.465Z,76.40
2022-08-05T23:31:17.560Z,77.10
2022-08-05T23:34:04.335Z,77.00
2022-08-05T23:36:44.448Z,77.40
2022-08-05T23:39:32.530Z,78.20
2022-08-05T23:42:13.435Z,78.10
2022-08-05T23:44:44.704Z,79.10
2022-08-05T23:47:25.005Z,79.30
2022-08-05T23:49:56.495Z,79.90
2022-08-05T23:52:30.552Z,81.40
2022-08-05T23:55:05.240Z,80.80
2022-08-05T23:57:37.611Z,81.20
